createdAt,value
2019-01-15T00:00:52.174Z,93352.88
2019-01-15T00:15:50.540Z,93387.44
2019-01-15T00:30:50.905Z,93419.15
2019-01-15T00:45:50.778Z,93430.72
2019-01-15T01:00:51.855Z,93438.66
2019-01-15T01:15:52.703Z,93446.12
2019-01-15T01:30:51.129Z,93450.47
2019-01-15T01:45:50.979Z,93441.95
2019-01-15T02:00:50.948Z,93423.08
2019-01-15T02:15:50.818Z,93446.00
2019-01-15T02:30:53.284Z,93477.41
2019-01-15T02:45:51.162Z,93487.59
2019-01-15T03:00:51.142Z,93517.38
2019-01-15T03:15:51.026Z,93531.44
2019-01-15T03:30:51.758Z,93548.88
2019-01-15T03:45:51.269Z,93530.46
2019-01-15T04:00:51.265Z,93556.61
2019-01-15T04:15:51.169Z,93575.81
2019-01-15T04:30:52.542Z,93591.37
2019-01-15T04:45:50.462Z,93605.84
2019-01-15T05:00:51.380Z,93614.31
2019-01-15T05:15:51.303Z,93611.53
2019-01-15T05:30:50.792Z,93616.10
2019-01-15T05:45:52.696Z,93663.33
2019-01-15T06:00:50.615Z,93687.91
2019-01-15T06:15:50.501Z,93701.61
2019-01-15T06:30:51.023Z,93712.06
2019-01-15T06:45:50.832Z,93743.73
2019-01-15T07:00:51.773Z,93741.89
2019-01-15T07:15:50.269Z,93772.39
2019-01-15T07:30:55.352Z,93802.72
2019-01-15T07:45:51.067Z,93824.73
2019-01-15T08:00:50.959Z,93818.95
2019-01-15T08:15:50.440Z,93851.01
2019-01-15T08:30:51.230Z,93856.83
2019-01-15T08:45:51.081Z,93879.89
2019-01-15T09:00:51.055Z,93874.56
2019-01-15T09:15:51.047Z,93857.97
2019-01-15T09:30:51.339Z,93833.78
2019-01-15T09:45:52.200Z,93830.94
2019-01-15T10:00:52.665Z,93821.70
2019-01-15T10:15:53.069Z,93811.00
2019-01-15T10:45:50.489Z,93831.94
2019-01-15T11:00:51.352Z,93817.56
2019-01-15T11:15:51.250Z,93820.23
2019-01-15T11:30:50.635Z,93826.31
2019-01-15T11:45:50.525Z,93842.42
2019-01-15T12:00:58.606Z,93860.01
2019-01-15T12:15:58.373Z,93885.28
2019-01-15T13:00:55.851Z,93929.70
2019-01-15T13:15:55.517Z,93950.59
2019-01-15T13:30:59.477Z,93951.53
2019-01-15T13:46:00.743Z,93962.25
2019-01-15T14:15:56.278Z,94000.16
2019-01-15T15:00:56.061Z,94019.47
2019-01-15T15:16:03.493Z,94033.24
2019-01-15T15:31:00.183Z,94042.88
2019-01-15T16:30:59.867Z,94138.30
2019-01-15T17:46:00.211Z,94287.54
2019-01-15T18:00:57.228Z,94302.81
2019-01-15T18:15:56.519Z,94320.60
2019-01-15T18:45:57.806Z,94324.52
2019-01-15T19:45:55.552Z,94391.96
2019-01-15T20:16:00.704Z,94394.13
2019-01-15T20:30:56.107Z,94390.20
2019-01-15T21:30:56.900Z,94430.72
2019-01-15T22:30:56.671Z,94429.24
2019-01-15T22:45:55.959Z,94420.53
2019-01-15T23:00:56.805Z,94414.87
2019-01-15T23:30:56.610Z,94411.33
2019-01-15T23:45:59.301Z,94426.00
